Indianapolis, Indiana
Current Conditions -  °F | °C
As of 8:54 PM on Friday 28 Nov 2014 (Local Time) from KIND Reporting Station
Broken Clouds Broken Clouds  
Wind Chill: 23°   Ceiling: 19000
Heat Index: 31°   Visibility: 10mi
Dew Point: 21°   Wind: 9mph
Humidity: 67%   Direction: 150°SSE
Pressure: 30.05"   Gusts: NA
Location:  39.77°N, 86.15°W
Report Text: KIND 290154Z 15008KT 10SM BKN190 M01/M06 A3005 RMK AO2 SLP185 T10061061
Loading
Personal Weather Stations






























Interactive Weather Map New forecast layout! Learn more

10-Day Weather Forecast

Advertisements
Track Severe Weather on mobile